Time;durP1;ratioP1;P1;durP2;ratioP2;P2;SDS_P1;SDS_P2;PMS_P1;PMS_P2;Temp;Humidity;BMP_temperature;BMP_pressure;BME280_temperature;BME280_humidity;BME280_pressure;Samples;Min_cycle;Max_cycle;Signal;HPM_P1;HPM_P2
2021/06/26 00:00:09;;;;;;;4.25;1.98;;;;;;;20.47;96.39;100277.47;1768940;80;21588;-44
2021/06/26 00:02:37;;;;;;;6.10;2.45;;;;;;;20.41;96.78;100268.58;1790538;79;21467;-43
2021/06/26 00:05:05;;;;;;;3.12;1.98;;;;;;;20.38;97.06;100269.88;1790215;80;20973;-43
2021/06/26 00:07:31;;;;;;;5.30;2.83;;;;;;;20.35;97.16;100272.77;1790493;79;21024;-45
2021/06/26 00:09:57;;;;;;;4.80;2.08;;;;;;;20.33;97.21;100271.51;1789627;80;21520;-49
2021/06/26 00:12:24;;;;;;;6.80;2.95;;;;;;;20.30;97.30;100264.69;1790329;80;21923;-42
2021/06/26 00:14:51;;;;;;;2.20;1.75;;;;;;;20.28;97.56;100261.45;1789983;80;21044;-44
2021/06/26 00:17:17;;;;;;;3.52;2.30;;;;;;;20.25;97.68;100258.00;1790113;80;20982;-42
2021/06/26 00:19:43;;;;;;;6.90;2.67;;;;;;;20.23;97.79;100258.92;1789865;80;21008;-49
2021/06/26 00:22:10;;;;;;;5.00;2.87;;;;;;;20.18;98.03;100275.22;1790192;80;20993;-43
2021/06/26 00:24:37;;;;;;;5.22;2.62;;;;;;;20.12;98.45;100264.70;1790154;80;20925;-43
2021/06/26 00:27:04;;;;;;;4.95;2.60;;;;;;;20.07;98.82;100261.58;1789628;80;20996;-49
2021/06/26 00:29:31;;;;;;;9.20;3.05;;;;;;;20.05;99.01;100259.73;1785769;80;21519;-44
2021/06/26 00:31:57;;;;;;;5.92;2.55;;;;;;;20.04;99.41;100262.28;1754628;81;20910;-43
2021/06/26 00:34:24;;;;;;;5.08;2.20;;;;;;;20.01;99.59;100263.57;1784533;80;21040;-42
2021/06/26 00:36:50;;;;;;;5.12;2.77;;;;;;;19.97;99.80;100271.76;1748743;81;21007;-49
2021/06/26 00:39:17;;;;;;;4.90;3.15;;;;;;;19.93;100.00;100274.43;1777144;80;21434;-43
2021/06/26 00:41:44;;;;;;;3.92;2.40;;;;;;;19.89;100.00;100277.66;1733254;82;21077;-49
2021/06/26 00:44:10;;;;;;;4.25;2.52;;;;;;;19.87;100.00;100277.77;1746526;82;20988;-49
2021/06/26 00:46:36;;;;;;;7.03;2.98;;;;;;;19.87;100.00;100275.80;1767711;81;21013;-43
2021/06/26 00:49:03;;;;;;;3.67;2.62;;;;;;;19.87;100.00;100276.39;1784362;80;21443;-43
2021/06/26 00:51:30;;;;;;;3.20;2.20;;;;;;;19.84;100.00;100279.86;1754471;81;20994;-48
2021/06/26 00:53:57;;;;;;;4.53;2.60;;;;;;;19.83;100.00;100278.22;1784269;79;21017;-42
2021/06/26 00:56:24;;;;;;;3.47;2.58;;;;;;;19.84;100.00;100281.24;1724462;83;21439;-42
2021/06/26 00:58:53;;;;;;;2.35;2.05;;;;;;;19.84;100.00;100279.86;1753461;81;20977;-42
2021/06/26 01:01:20;;;;;;;4.12;2.50;;;;;;;19.87;100.00;100272.23;1724326;83;21014;-43
2021/06/26 01:03:46;;;;;;;5.50;3.05;;;;;;;19.86;100.00;100278.94;1704605;81;21017;-49
2021/06/26 01:06:14;;;;;;;7.45;3.08;;;;;;;19.87;100.00;100276.39;1784463;80;20942;-42
2021/06/26 01:08:42;;;;;;;4.40;2.52;;;;;;;19.91;100.00;100275.94;1784385;80;21002;-48
2021/06/26 01:11:11;;;;;;;4.75;2.98;;;;;;;19.95;100.00;100275.45;1754647;81;21475;-43
2021/06/26 01:13:37;;;;;;;2.87;2.30;;;;;;;19.97;100.00;100264.83;1765152;80;21001;-43
2021/06/26 01:16:04;;;;;;;4.40;3.12;;;;;;;20.01;100.00;100264.37;1724548;82;21001;-48
2021/06/26 01:18:32;;;;;;;8.63;3.70;;;;;;;20.05;100.00;100269.44;1753238;81;21091;-49
2021/06/26 01:20:58;;;;;;;4.75;3.00;;;;;;;20.08;100.00;100269.31;1724227;82;21054;-44
2021/06/26 01:23:25;;;;;;;6.15;3.52;;;;;;;20.09;100.00;100285.63;1753347;80;21467;-48
2021/06/26 01:25:52;;;;;;;3.52;2.92;;;;;;;20.09;100.00;100295.33;1723975;82;21093;-43
2021/06/26 01:28:18;;;;;;;6.78;2.98;;;;;;;20.12;100.00;100296.59;1753129;81;21365;-49
2021/06/26 01:30:46;;;;;;;5.37;3.10;;;;;;;20.16;100.00;100298.33;1728590;81;21427;-43
2021/06/26 01:33:12;;;;;;;5.30;3.12;;;;;;;20.24;100.00;100287.47;1784209;80;20985;-48
2021/06/26 01:35:38;;;;;;;5.78;3.27;;;;;;;20.31;100.00;100300.17;1728496;80;21009;-43
2021/06/26 01:38:05;;;;;;;4.87;3.22;;;;;;;20.38;100.00;100312.89;1754377;81;20993;-43
2021/06/26 01:40:32;;;;;;;5.95;2.83;;;;;;;20.48;100.00;100317.95;1783656;79;21594;-43
2021/06/26 01:42:58;;;;;;;5.95;3.12;;;;;;;20.55;100.00;100302.94;1754395;81;21556;-48
2021/06/26 01:45:25;;;;;;;5.92;3.17;;;;;;;20.60;100.00;100301.31;1784036;80;20893;-48
2021/06/26 01:47:56;;;;;;;7.05;3.70;;;;;;;20.64;100.00;100307.54;1754212;81;20986;-43
2021/06/26 01:50:24;;;;;;;4.33;3.17;;;;;;;20.68;100.00;100318.18;1783932;80;21383;-43
2021/06/26 01:52:51;;;;;;;6.45;3.27;;;;;;;20.71;100.00;100318.86;1754370;81;20938;-43
2021/06/26 01:55:19;;;;;;;5.28;3.22;;;;;;;20.72;100.00;100319.08;1753396;80;21598;-49
2021/06/26 01:57:47;;;;;;;5.03;2.75;;;;;;;20.73;100.00;100309.61;1753924;81;20914;-43
2021/06/26 02:00:14;;;;;;;6.70;3.50;;;;;;;20.75;100.00;100307.30;1784415;80;21546;-45
2021/06/26 02:02:41;;;;;;;10.32;5.78;;;;;;;20.75;100.00;100308.68;1754560;81;21006;-49
2021/06/26 02:05:10;;;;;;;4.75;2.95;;;;;;;20.72;100.00;100307.42;1784328;80;20954;-48
2021/06/26 02:07:38;;;;;;;5.05;2.87;;;;;;;20.71;100.00;100314.11;1743967;81;20998;-43
2021/06/26 02:10:06;;;;;;;4.55;3.12;;;;;;;20.71;100.00;100307.17;1753330;81;21088;-42
2021/06/26 02:12:32;;;;;;;4.65;2.95;;;;;;;20.72;100.00;100305.20;1753349;81;21060;-49
2021/06/26 02:14:59;;;;;;;6.40;2.90;;;;;;;20.72;100.00;100300.47;1724281;83;21057;-49
2021/06/26 02:17:26;;;;;;;3.42;2.90;;;;;;;20.73;100.00;100303.47;1752653;81;21530;-43
2021/06/26 02:19:52;;;;;;;2.40;2.20;;;;;;;20.76;100.00;100300.56;1752925;81;21044;-49
2021/06/26 02:22:19;;;;;;;5.75;2.75;;;;;;;20.79;100.00;100298.47;1752619;81;20988;-49
2021/06/26 02:24:46;;;;;;;5.00;2.72;;;;;;;20.82;100.00;100299.14;1723614;83;21606;-49
2021/06/26 02:27:12;;;;;;;4.20;2.65;;;;;;;20.87;100.00;100297.53;1722873;81;20985;-48
2021/06/26 02:29:38;;;;;;;4.80;2.72;;;;;;;20.96;100.00;100301.53;1756095;81;20968;-49
2021/06/26 02:32:05;;;;;;;4.45;2.70;;;;;;;21.01;100.00;100302.08;1758282;81;21383;-49
2021/06/26 02:34:32;;;;;;;4.47;2.70;;;;;;;21.09;100.00;100300.31;1758733;81;21041;-43
2021/06/26 02:36:58;;;;;;;4.67;2.98;;;;;;;21.15;100.00;100300.89;1758908;81;20981;-43
2021/06/26 02:39:25;;;;;;;3.60;2.67;;;;;;;21.21;100.00;100295.28;1759071;81;21426;-44
2021/06/26 02:41:53;;;;;;;4.50;2.55;;;;;;;21.28;100.00;100288.53;1758799;81;21021;-42
2021/06/26 02:44:20;;;;;;;4.85;2.52;;;;;;;21.34;99.95;100287.13;1759063;81;20977;-49
2021/06/26 02:46:46;;;;;;;6.40;3.02;;;;;;;21.41;99.91;100283.73;1758792;81;21020;-43
2021/06/26 02:49:12;;;;;;;4.45;2.77;;;;;;;21.43;99.76;100279.44;1758852;81;21000;-48
2021/06/26 02:51:39;;;;;;;3.98;3.08;;;;;;;21.52;99.34;100279.28;1758934;81;20989;-48
2021/06/26 02:54:05;;;;;;;3.62;2.00;;;;;;;21.65;98.75;100276.63;1758762;81;21783;-49
2021/06/26 02:56:32;;;;;;;3.70;2.33;;;;;;;21.79;98.12;100271.22;1758596;81;20985;-48
2021/06/26 02:58:58;;;;;;;3.22;2.20;;;;;;;21.91;97.41;100279.47;1758893;81;21344;-49
2021/06/26 03:01:25;;;;;;;3.67;2.00;;;;;;;22.04;96.73;100294.08;1758856;81;20989;-49
2021/06/26 03:03:51;;;;;;;3.92;2.70;;;;;;;22.16;95.97;100295.36;1731080;81;21039;-43
2021/06/26 03:06:18;;;;;;;3.87;2.60;;;;;;;22.27;95.22;100304.78;1758911;81;20897;-44
2021/06/26 03:08:45;;;;;;;4.03;2.45;;;;;;;22.38;94.53;100298.65;1758802;81;21577;-49
2021/06/26 03:11:11;;;;;;;3.00;1.92;;;;;;;22.45;94.00;100289.90;1758966;81;21361;-44
2021/06/26 03:13:38;;;;;;;2.87;2.40;;;;;;;22.55;93.40;100287.10;1759049;81;21001;-42
2021/06/26 03:16:05;;;;;;;3.58;2.02;;;;;;;22.66;92.93;100285.37;1758877;81;20993;-48
2021/06/26 03:18:33;;;;;;;4.00;2.72;;;;;;;22.77;92.27;100288.37;1758712;81;20990;-44
2021/06/26 03:20:59;;;;;;;4.28;2.30;;;;;;;22.89;91.49;100298.56;1758922;81;20994;-49
2021/06/26 03:23:26;;;;;;;3.27;2.12;;;;;;;23.00;90.85;100301.03;1758758;81;21463;-43
2021/06/26 03:25:53;;;;;;;4.30;2.58;;;;;;;23.09;90.17;100307.16;1730914;81;20992;-44
2021/06/26 03:28:19;;;;;;;4.05;2.90;;;;;;;23.18;89.42;100299.39;1759148;81;21041;-49
2021/06/26 03:30:45;;;;;;;4.53;2.52;;;;;;;23.27;89.07;100292.20;1758754;81;20950;-43
2021/06/26 03:33:12;;;;;;;6.78;3.10;;;;;;;23.34;88.29;100281.75;1759117;81;20973;-49
2021/06/26 03:35:39;;;;;;;4.05;2.75;;;;;;;23.43;88.27;100278.14;1758794;81;21045;-49
2021/06/26 03:38:05;;;;;;;2.60;2.17;;;;;;;23.50;87.40;100282.45;1759005;81;21406;-44
2021/06/26 03:40:32;;;;;;;5.47;2.75;;;;;;;23.57;87.06;100282.59;1758879;81;21483;-49
2021/06/26 03:42:59;;;;;;;4.15;3.10;;;;;;;23.68;86.40;100285.55;1758876;81;20985;-50
2021/06/26 03:45:25;;;;;;;3.42;2.67;;;;;;;23.80;85.38;100287.38;1758792;81;21415;-43
2021/06/26 03:47:52;;;;;;;3.42;2.60;;;;;;;23.89;84.71;100272.59;1731132;81;21020;-45
2021/06/26 03:50:18;;;;;;;3.37;2.83;;;;;;;24.01;83.92;100276.57;1758844;81;21088;-49
2021/06/26 03:52:45;;;;;;;5.30;3.12;;;;;;;24.10;83.34;100275.49;1759114;81;20977;-50
2021/06/26 03:55:12;;;;;;;3.67;2.47;;;;;;;24.21;82.64;100276.47;1758954;81;21060;-43
2021/06/26 03:57:38;;;;;;;3.85;2.35;;;;;;;24.30;81.82;100281.17;1759165;81;20984;-49
2021/06/26 04:00:06;;;;;;;3.58;2.47;;;;;;;24.40;81.27;100283.30;1759018;81;20978;-49
2021/06/26 04:02:33;;;;;;;5.70;3.10;;;;;;;24.51;80.27;100279.91;1731032;81;21016;-42
2021/06/26 04:04:59;;;;;;;6.80;3.08;;;;;;;24.59;80.00;100269.84;1759078;81;21410;-49
2021/06/26 04:07:26;;;;;;;4.55;2.80;;;;;;;24.65;79.80;100266.94;1759409;81;20953;-49
2021/06/26 04:09:53;;;;;;;4.60;2.52;;;;;;;24.74;79.96;100259.66;1758895;81;21036;-48
2021/06/26 04:12:20;;;;;;;3.90;2.52;;;;;;;24.85;79.16;100259.20;1758845;81;20981;-45
2021/06/26 04:14:46;;;;;;;2.70;2.40;;;;;;;24.95;78.10;100262.48;1758904;81;20980;-49
2021/06/26 04:17:12;;;;;;;3.52;2.33;;;;;;;25.05;77.46;100270.20;1758377;81;20973;-49
2021/06/26 04:19:40;;;;;;;3.15;2.85;;;;;;;25.11;77.07;100267.27;1758249;81;21433;-42
2021/06/26 04:22:07;;;;;;;3.70;2.62;;;;;;;25.16;77.03;100264.13;1758524;81;21001;-49
2021/06/26 04:24:33;;;;;;;7.45;3.15;;;;;;;25.23;76.71;100255.05;1759016;81;21013;-49
2021/06/26 04:26:59;;;;;;;4.00;2.52;;;;;;;25.31;76.68;100255.31;1759008;81;20989;-50
2021/06/26 04:29:26;;;;;;;4.78;2.95;;;;;;;25.36;76.37;100249.98;1759588;81;20954;-43
2021/06/26 04:31:52;;;;;;;4.35;2.70;;;;;;;25.42;75.95;100242.83;1759654;81;21417;-44
2021/06/26 04:34:19;;;;;;;3.27;2.37;;;;;;;25.48;75.36;100241.30;1747169;81;21004;-44
2021/06/26 04:36:46;;;;;;;5.12;2.92;;;;;;;25.53;75.16;100236.14;1810238;78;21056;-50
2021/06/26 04:39:13;;;;;;;4.30;2.62;;;;;;;25.66;74.57;100237.25;1789459;80;21027;-49
2021/06/26 04:41:40;;;;;;;6.17;2.83;;;;;;;25.77;73.84;100236.75;1807673;78;21372;-44
2021/06/26 04:44:06;;;;;;;4.05;2.55;;;;;;;25.88;73.51;100241.05;1821724;78;20998;-45
2021/06/26 04:46:33;;;;;;;5.20;3.60;;;;;;;25.94;73.33;100237.50;1821491;78;21491;-45
2021/06/26 04:49:00;;;;;;;3.85;2.90;;;;;;;26.01;72.54;100242.94;1821769;78;20882;-44
2021/06/26 04:51:26;;;;;;;3.37;2.87;;;;;;;26.05;72.87;100240.97;1821414;78;21032;-50
2021/06/26 04:53:53;;;;;;;3.45;2.50;;;;;;;26.13;72.65;100232.21;1802386;78;21451;-44
2021/06/26 04:56:20;;;;;;;5.17;2.70;;;;;;;26.28;72.67;100234.50;1789027;80;21037;-44
2021/06/26 04:58:46;;;;;;;4.53;2.40;;;;;;;26.43;72.45;100236.78;1789340;80;21028;-44
2021/06/26 05:01:13;;;;;;;4.03;3.17;;;;;;;26.52;71.51;100231.62;1789141;80;20994;-44
2021/06/26 05:03:40;;;;;;;4.30;3.15;;;;;;;26.59;70.67;100232.30;1789614;80;21032;-44
2021/06/26 05:06:07;;;;;;;5.58;2.60;;;;;;;26.64;70.33;100232.52;1789159;79;21046;-49
2021/06/26 05:08:33;;;;;;;4.97;2.70;;;;;;;26.71;70.59;100224.14;1789260;80;21001;-49
2021/06/26 05:11:06;;;;;;;3.80;2.52;;;;;;;26.84;70.02;100226.77;1806586;78;20989;-50
2021/06/26 05:13:34;;;;;;;4.92;3.10;;;;;;;26.95;69.79;100223.99;1789010;78;20978;-43
2021/06/26 05:16:01;;;;;;;4.95;2.95;;;;;;;27.01;69.49;100226.63;1795930;78;20998;-43
2021/06/26 05:18:28;;;;;;;5.40;2.85;;;;;;;27.14;69.16;100225.64;1806615;78;20986;-44
2021/06/26 05:20:56;;;;;;;3.02;2.72;;;;;;;27.24;68.53;100230.50;1796258;78;20994;-43
2021/06/26 05:23:24;;;;;;;4.42;3.15;;;;;;;27.32;68.08;100220.88;1790765;80;20957;-44
2021/06/26 05:25:50;;;;;;;3.27;2.98;;;;;;;27.37;68.15;100219.08;1788658;80;21001;-44
2021/06/26 05:28:17;;;;;;;4.80;2.62;;;;;;;27.45;67.59;100231.93;1790777;79;20974;-50
2021/06/26 05:30:44;;;;;;;4.67;3.27;;;;;;;27.50;67.12;100225.70;1790485;80;20970;-44
2021/06/26 05:33:11;;;;;;;4.72;3.42;;;;;;;27.48;67.55;100219.72;1782238;80;21004;-49
2021/06/26 05:35:37;;;;;;;4.28;3.27;;;;;;;27.50;67.08;100231.31;1715135;82;21096;-43
2021/06/26 05:38:03;;;;;;;3.40;3.10;;;;;;;27.48;66.22;100219.72;1758317;80;21029;-45
2021/06/26 05:40:30;;;;;;;3.17;2.65;;;;;;;27.44;67.68;100214.88;1727697;83;21012;-44
2021/06/26 05:42:56;;;;;;;3.47;2.52;;;;;;;27.51;67.04;100214.70;1727728;82;21466;-43
2021/06/26 05:45:23;;;;;;;4.92;3.50;;;;;;;27.49;66.58;100217.09;1738874;82;21005;-49
2021/06/26 05:47:49;;;;;;;4.80;3.00;;;;;;;27.50;66.33;100226.53;1732061;81;20993;-49
2021/06/26 05:50:16;;;;;;;5.20;3.12;;;;;;;27.50;66.02;100224.30;1738762;82;21085;-43
2021/06/26 05:52:54;;;;;;;3.30;2.35;;;;;;;27.54;66.33;100217.48;1758169;81;20901;-44
2021/06/26 05:55:20;;;;;;;2.72;2.27;;;;;;;27.67;66.21;100222.12;1738954;82;21092;-50
2021/06/26 05:57:47;;;;;;;5.08;2.62;;;;;;;27.83;66.50;100222.52;1757846;81;20997;-49
2021/06/26 06:00:15;;;;;;;4.17;3.27;;;;;;;27.86;65.67;100223.11;1757926;81;21044;-43
2021/06/26 06:02:43;;;;;;;2.80;2.52;;;;;;;27.91;66.25;100230.33;1738849;82;21020;-43
2021/06/26 06:05:12;;;;;;;5.25;2.92;;;;;;;28.02;65.46;100238.76;1761103;80;20989;-44
2021/06/26 06:07:42;;;;;;;4.00;3.12;;;;;;;28.11;65.76;100238.33;1743341;81;20925;-50
2021/06/26 06:10:11;;;;;;;5.28;2.55;;;;;;;28.23;65.80;100237.29;1776231;80;20985;-44
2021/06/26 06:12:38;;;;;;;3.62;2.90;;;;;;;28.33;63.96;100230.65;1744259;81;21053;-43
2021/06/26 06:15:09;;;;;;;3.55;2.60;;;;;;;28.33;64.54;100227.84;1773416;80;21065;-43
2021/06/26 06:17:36;;;;;;;4.80;2.55;;;;;;;28.41;65.69;100226.59;1770906;81;21033;-49
2021/06/26 06:20:04;;;;;;;5.58;3.35;;;;;;;28.53;64.30;100218.36;1760215;80;21021;-49
2021/06/26 06:22:32;;;;;;;4.05;2.90;;;;;;;28.65;64.41;100221.52;1740067;82;21016;-43
2021/06/26 06:24:58;;;;;;;3.47;2.55;;;;;;;28.82;64.06;100221.23;1759170;81;21403;-43
2021/06/26 06:27:25;;;;;;;3.90;2.47;;;;;;;28.92;64.27;100220.37;1770159;81;20989;-44
2021/06/26 06:29:52;;;;;;;6.05;3.45;;;;;;;29.01;63.24;100221.34;1770273;81;21064;-49
2021/06/26 06:32:19;;;;;;;3.05;2.60;;;;;;;29.07;63.57;100221.12;1782791;79;20992;-43
2021/06/26 06:34:45;;;;;;;3.98;2.70;;;;;;;29.22;64.01;100235.09;1767275;81;20977;-49
2021/06/26 06:37:13;;;;;;;3.08;2.37;;;;;;;29.32;62.15;100225.77;1767221;81;20952;-43
2021/06/26 06:39:39;;;;;;;4.05;2.80;;;;;;;29.36;62.72;100227.36;1741096;81;21451;-44
2021/06/26 06:42:06;;;;;;;3.10;2.50;;;;;;;29.42;62.75;100225.50;1705212;83;21085;-42
2021/06/26 06:44:33;;;;;;;3.20;2.90;;;;;;;29.46;62.66;100224.27;1705187;83;21057;-44
2021/06/26 06:46:59;;;;;;;2.85;2.22;;;;;;;29.58;62.71;100222.36;1767397;81;21552;-44
2021/06/26 06:49:26;;;;;;;3.35;2.30;;;;;;;29.71;63.22;100212.03;1767235;81;21039;-49
2021/06/26 06:51:57;;;;;;;4.15;2.60;;;;;;;29.89;62.32;100215.45;1766902;81;21055;-49
2021/06/26 06:54:24;;;;;;;3.55;2.40;;;;;;;30.05;62.01;100218.34;1768203;79;21023;-44
2021/06/26 06:56:50;;;;;;;3.55;2.75;;;;;;;30.21;60.98;100225.59;1767606;81;20997;-49
2021/06/26 06:59:16;;;;;;;5.03;2.80;;;;;;;30.37;60.66;100225.86;1767756;81;21051;-43
2021/06/26 07:01:43;;;;;;;3.45;2.47;;;;;;;30.45;57.58;100218.11;1769456;79;21410;-49
2021/06/26 07:04:09;;;;;;;3.35;2.25;;;;;;;30.43;58.05;100212.88;1798751;79;21472;-43
2021/06/26 07:06:36;;;;;;;2.80;2.05;;;;;;;30.54;58.87;100214.18;1798925;79;20981;-49
2021/06/26 07:09:05;;;;;;;2.70;2.15;;;;;;;30.68;58.85;100213.17;1798914;79;21478;-43
2021/06/26 07:11:32;;;;;;;2.60;1.98;;;;;;;30.75;58.13;100215.91;1767958;79;20996;-50
2021/06/26 07:13:59;;;;;;;5.60;2.95;;;;;;;30.81;58.87;100203.53;1767751;81;21003;-43
2021/06/26 07:16:25;;;;;;;3.42;2.25;;;;;;;30.94;57.85;100203.19;1789778;79;20980;-44
2021/06/26 07:18:52;;;;;;;4.08;2.08;;;;;;;31.10;58.42;100205.36;1790927;79;21004;-50
2021/06/26 07:21:18;;;;;;;2.62;2.10;;;;;;;31.26;58.19;100199.09;1776543;78;21443;-44
2021/06/26 07:23:45;;;;;;;3.62;2.20;;;;;;;31.44;56.20;100201.64;1799148;79;20961;-45
2021/06/26 07:26:11;;;;;;;4.00;2.98;;;;;;;31.50;56.70;100197.09;1799021;79;21382;-44
2021/06/26 07:28:38;;;;;;;3.08;2.30;;;;;;;31.56;55.46;100201.03;1799519;79;20993;-49
2021/06/26 07:31:05;;;;;;;2.80;1.92;;;;;;;31.56;55.59;100194.59;1812294;78;20978;-49
2021/06/26 07:33:31;;;;;;;2.72;2.15;;;;;;;31.59;56.26;100198.76;1782029;80;21526;-50
2021/06/26 07:35:59;;;;;;;3.12;2.10;;;;;;;31.68;54.88;100197.59;1754179;81;20981;-50
2021/06/26 07:38:26;;;;;;;3.00;2.60;;;;;;;31.79;55.14;100199.43;1784577;80;21484;-44
2021/06/26 07:40:52;;;;;;;3.65;2.70;;;;;;;31.84;54.97;100194.69;1776986;80;21013;-44
2021/06/26 07:43:18;;;;;;;3.10;2.22;;;;;;;31.88;54.02;100199.67;1756832;80;20985;-50
2021/06/26 07:45:45;;;;;;;2.62;2.35;;;;;;;31.85;54.38;100194.86;1769362;80;20986;-50
2021/06/26 07:48:11;;;;;;;3.40;2.42;;;;;;;31.77;54.21;100198.44;1755315;80;21342;-44
2021/06/26 07:50:40;;;;;;;4.25;2.42;;;;;;;31.80;55.46;100194.77;1759809;80;21005;-50
2021/06/26 07:53:07;;;;;;;3.02;2.22;;;;;;;31.91;56.03;100197.39;1753824;80;21032;-50
2021/06/26 07:55:34;;;;;;;3.20;2.33;;;;;;;32.11;55.59;100194.61;1753953;80;21471;-50
2021/06/26 07:58:01;;;;;;;10.90;6.05;;;;;;;32.27;55.41;100193.30;1765602;80;20978;-44
2021/06/26 08:00:27;;;;;;;17.95;10.78;;;;;;;32.43;54.86;100192.55;1777796;80;21032;-49
2021/06/26 08:02:53;;;;;;;2.83;2.20;;;;;;;32.62;53.86;100191.57;1758709;80;20965;-43
2021/06/26 08:05:20;;;;;;;3.27;2.05;;;;;;;32.79;51.89;100183.34;1777512;80;21076;-50
2021/06/26 08:07:47;;;;;;;13.58;8.88;;;;;;;32.75;52.24;100184.81;1769481;80;20974;-49
2021/06/26 08:10:14;;;;;;;3.55;2.58;;;;;;;32.84;52.68;100183.41;1782087;80;20997;-44
2021/06/26 08:12:42;;;;;;;3.77;2.62;;;;;;;33.01;51.61;100173.70;1776441;80;21449;-43
2021/06/26 08:15:10;;;;;;;4.78;2.15;;;;;;;33.19;52.28;100167.05;1753264;81;21510;-44
2021/06/26 08:17:36;;;;;;;3.00;1.95;;;;;;;33.35;52.58;100160.57;1723439;81;20969;-44
2021/06/26 08:20:04;;;;;;;3.83;2.83;;;;;;;33.48;51.79;100154.19;1758870;80;21021;-50
2021/06/26 08:22:32;;;;;;;4.37;2.87;;;;;;;33.62;51.84;100160.94;1761268;80;21414;-50
2021/06/26 08:24:59;;;;;;;3.72;2.47;;;;;;;33.60;49.55;100156.33;1753415;80;21032;-44
2021/06/26 08:27:25;;;;;;;5.08;3.10;;;;;;;33.56;49.67;100157.06;1753406;80;21042;-48
2021/06/26 08:29:52;;;;;;;3.30;2.52;;;;;;;33.55;49.82;100154.00;1776723;80;20997;-50
2021/06/26 08:32:19;;;;;;;10.98;6.17;;;;;;;33.58;49.81;100155.97;1764603;80;21045;-44
2021/06/26 08:34:45;;;;;;;12.58;6.22;;;;;;;33.58;51.31;100148.89;1759758;80;20903;-50
2021/06/26 08:37:11;;;;;;;19.35;7.33;;;;;;;33.75;51.61;100149.03;1758876;80;21037;-44
2021/06/26 08:39:38;;;;;;;8.28;5.50;;;;;;;33.96;50.04;100145.45;1769074;80;21005;-50
2021/06/26 08:42:07;;;;;;;2.92;1.95;;;;;;;34.17;50.21;100144.06;1775159;80;21537;-44
2021/06/26 08:44:33;;;;;;;2.50;2.30;;;;;;;34.31;48.05;100142.86;1767391;80;21036;-45
2021/06/26 08:47:02;;;;;;;4.87;3.47;;;;;;;34.24;48.58;100135.35;1772497;80;20953;-50
2021/06/26 08:49:28;;;;;;;2.70;2.42;;;;;;;34.19;48.78;100138.74;1762938;79;21447;-50
2021/06/26 08:51:54;;;;;;;2.12;1.77;;;;;;;34.23;48.02;100137.39;1770828;79;20976;-50
2021/06/26 08:54:23;;;;;;;4.33;2.10;;;;;;;34.23;47.67;100127.47;1764906;80;20997;-43
2021/06/26 08:56:50;;;;;;;2.45;1.80;;;;;;;34.16;49.34;100134.77;1786021;80;20989;-46
2021/06/26 08:59:16;;;;;;;2.10;1.80;;;;;;;34.10;48.23;100123.83;1772236;79;21047;-44
2021/06/26 09:01:43;;;;;;;2.20;1.67;;;;;;;34.11;49.17;100116.90;1782733;80;21025;-50
2021/06/26 09:04:14;;;;;;;2.50;1.60;;;;;;;34.15;48.87;100126.10;1778157;80;21406;-51
2021/06/26 09:06:58;;;;;;;2.93;2.13;;;;;;;34.12;50.13;100121.31;1782577;80;20994;-50
2021/06/26 09:09:36;;;;;;;3.12;1.70;;;;;;;34.17;48.46;100123.59;1761443;80;21025;-44
2021/06/26 09:12:05;;;;;;;15.65;7.95;;;;;;;34.14;49.25;100113.16;1769022;80;21473;-44
2021/06/26 09:14:33;;;;;;;6.22;3.50;;;;;;;34.28;49.67;100109.74;1761893;80;21406;-44
2021/06/26 09:16:59;;;;;;;3.95;2.20;;;;;;;34.43;48.58;100107.42;1774841;80;21012;-50
2021/06/26 09:19:27;;;;;;;5.75;3.75;;;;;;;34.55;47.77;100104.44;1782770;80;20968;-44
2021/06/26 09:22:01;;;;;;;7.50;3.08;;;;;;;34.62;47.41;100099.98;1763882;79;21391;-45
2021/06/26 09:24:46;;;;;;;3.90;2.58;;;;;;;34.73;47.02;100093.17;1759833;80;21517;-50
2021/06/26 09:27:16;;;;;;;5.35;3.35;;;;;;;34.85;47.05;100092.38;1784731;80;20855;-45
2021/06/26 09:29:49;;;;;;;;;;;;;;;34.84;47.19;100082.25;1782655;80;21459;-50
2021/06/26 09:32:28;;;;;;;2.15;1.70;;;;;;;34.91;47.17;100077.77;1792785;79;20141;-50
2021/06/26 09:34:55;;;;;;;3.20;1.95;;;;;;;34.97;45.35;100077.37;1765683;81;21000;-44
2021/06/26 09:37:28;;;;;;;3.02;1.65;;;;;;;34.92;45.94;100077.95;1767798;79;20988;-50
2021/06/26 09:39:56;;;;;;;2.77;1.77;;;;;;;34.77;45.31;100073.97;1780914;79;20993;-50
2021/06/26 09:42:36;;;;;;;4.47;1.90;;;;;;;34.73;45.93;100072.68;1774768;79;20945;-44
2021/06/26 09:45:05;;;;;;;2.22;1.75;;;;;;;34.68;46.37;100076.88;1769733;79;21011;-50
2021/06/26 09:47:44;;;;;;;2.67;1.98;;;;;;;34.55;45.15;100071.81;1767772;81;21016;-50
2021/06/26 09:50:27;;;;;;;5.03;2.20;;;;;;;34.53;45.58;100075.72;1771650;79;21501;-50
2021/06/26 09:53:00;;;;;;;2.85;2.05;;;;;;;34.61;45.59;100075.69;1773933;79;21484;-50
2021/06/26 09:55:29;;;;;;;2.20;1.87;;;;;;;34.62;45.09;100080.13;1748436;81;21005;-50
2021/06/26 09:57:59;;;;;;;2.62;1.77;;;;;;;34.48;46.10;100077.08;1743009;80;21016;-44
2021/06/26 10:00:28;;;;;;;2.00;1.80;;;;;;;34.43;46.15;100079.70;1711061;83;21063;-50
2021/06/26 10:02:55;;;;;;;2.42;1.65;;;;;;;34.53;45.49;100074.30;1771260;79;20983;-50
2021/06/26 10:05:22;;;;;;;1.60;1.50;;;;;;;34.57;45.95;100071.34;1773696;79;21079;-50
2021/06/26 10:07:51;;;;;;;2.17;1.67;;;;;;;34.57;46.37;100065.06;1772823;79;21012;-50
2021/06/26 10:10:21;;;;;;;2.80;1.80;;;;;;;34.64;46.60;100060.59;1772858;79;21441;-50
2021/06/26 10:12:49;;;;;;;2.70;1.15;;;;;;;34.73;47.41;100063.38;1772981;80;21370;-50
2021/06/26 10:15:18;;;;;;;1.95;1.65;;;;;;;34.80;48.49;100065.98;1778440;79;20996;-44
2021/06/26 10:17:44;;;;;;;2.52;1.57;;;;;;;34.82;45.93;100061.45;1771542;79;20964;-44
2021/06/26 10:20:15;;;;;;;2.58;2.02;;;;;;;34.83;46.12;100055.13;1769842;79;21016;-44
2021/06/26 10:22:46;;;;;;;2.25;1.82;;;;;;;34.93;46.67;100051.14;1785933;79;21470;-50
2021/06/26 10:25:13;;;;;;;6.35;2.25;;;;;;;35.01;47.38;100055.31;1776096;79;21484;-50
2021/06/26 10:27:39;;;;;;;2.15;1.92;;;;;;;35.02;46.34;100052.66;1746853;80;21460;-46
2021/06/26 10:30:21;;;;;;;1.70;1.60;;;;;;;34.97;45.21;100049.63;1768175;79;21405;-50
2021/06/26 10:32:57;;;;;;;1.57;1.47;;;;;;;34.91;46.58;100050.80;1764512;78;21013;-45
2021/06/26 10:35:26;;;;;;;3.75;1.90;;;;;;;34.95;45.89;100048.64;1761813;80;21406;-44
2021/06/26 10:38:08;;;;;;;2.90;1.77;;;;;;;35.12;46.99;100053.58;1761688;80;21024;-44
2021/06/26 10:40:52;;;;;;;3.60;1.92;;;;;;;35.27;45.72;100056.72;1708149;83;20974;-50
2021/06/26 10:43:30;;;;;;;2.00;1.80;;;;;;;35.31;44.46;100053.10;1694882;83;21022;-51
2021/06/26 10:46:13;;;;;;;2.40;2.10;;;;;;;35.25;44.01;100050.06;1696404;83;20910;-51
2021/06/26 10:48:41;;;;;;;3.50;1.70;;;;;;;35.28;44.56;100051.19;1704016;82;21017;-50
2021/06/26 10:51:09;;;;;;;4.42;2.17;;;;;;;35.41;45.62;100057.64;1761632;80;21001;-50
2021/06/26 10:53:39;;;;;;;2.33;1.55;;;;;;;35.52;45.20;100048.09;1762301;80;20985;-50
2021/06/26 10:56:12;;;;;;;3.25;1.62;;;;;;;35.58;44.81;100054.59;1725487;81;21042;-50
2021/06/26 10:58:43;;;;;;;3.62;1.90;;;;;;;35.60;45.16;100043.59;1717900;82;20974;-44
2021/06/26 11:01:22;;;;;;;4.30;1.80;;;;;;;35.67;45.61;100049.02;1723013;83;21082;-45
2021/06/26 11:03:51;;;;;;;3.08;2.08;;;;;;;35.71;44.87;100044.01;1755274;81;21073;-45
2021/06/26 11:06:21;;;;;;;3.50;2.50;;;;;;;35.77;44.15;100044.98;1724038;83;21874;-46
2021/06/26 11:09:02;;;;;;;3.77;2.60;;;;;;;35.87;44.37;100038.09;1716547;82;21070;-46
2021/06/26 11:11:33;;;;;;;1.93;1.67;;;;;;;36.08;42.89;100039.95;1718055;83;21009;-45
2021/06/26 11:14:19;;;;;;;2.90;1.40;;;;;;;36.37;42.56;100034.75;1754610;81;21528;-45
2021/06/26 11:16:56;;;;;;;2.65;2.30;;;;;;;36.54;43.11;100037.34;1727933;82;21014;-45
2021/06/26 11:19:30;;;;;;;1.98;1.85;;;;;;;36.65;41.16;100034.90;1716254;82;20978;-44
2021/06/26 11:22:00;;;;;;;2.70;2.23;;;;;;;36.80;40.53;100035.88;1718655;82;38880;-44
2021/06/26 11:24:38;;;;;;;3.72;2.77;;;;;;;36.99;39.73;100029.59;1712698;82;21710;-50
2021/06/26 11:27:06;;;;;;;2.58;1.85;;;;;;;37.30;38.49;100027.27;1711173;82;21022;-45